Time;durP1;ratioP1;P1;durP2;ratioP2;P2;SDS_P1;SDS_P2;PMS_P1;PMS_P2;Temp;Humidity;BMP_temperature;BMP_pressure;BME280_temperature;BME280_humidity;BME280_pressure;Samples;Min_cycle;Max_cycle;Signal;HPM_P1;HPM_P2
2023/09/29 00:02:06;;;;;;;14.75;9.20;;;;;;;15.24;100.00;101010.22;4989935;28;20434;-86
2023/09/29 00:04:34;;;;;;;17.35;9.18;;;;;;;15.20;100.00;101011.13;4987169;28;20418;-86
2023/09/29 00:07:03;;;;;;;14.60;9.53;;;;;;;15.21;100.00;101012.78;4991104;28;20418;-86
2023/09/29 00:09:31;;;;;;;13.45;9.40;;;;;;;15.25;100.00;101003.63;4989170;28;20437;-86
2023/09/29 00:11:59;;;;;;;16.10;10.17;;;;;;;15.27;100.00;101022.50;4987663;28;20502;-85
2023/09/29 00:14:34;;;;;;;17.25;10.93;;;;;;;15.28;100.00;101013.97;4990657;28;20430;-86
2023/09/29 00:17:07;;;;;;;17.08;11.40;;;;;;;15.30;100.00;101014.50;4990419;28;21147;-85
2023/09/29 00:19:35;;;;;;;17.23;11.90;;;;;;;15.35;100.00;101007.28;4979095;28;20437;-86
2023/09/29 00:22:09;;;;;;;21.52;11.73;;;;;;;15.26;100.00;101001.69;4991690;28;20793;-86
2023/09/29 00:24:37;;;;;;;17.33;11.10;;;;;;;15.18;100.00;101002.38;4988574;28;20436;-86
2023/09/29 00:27:10;;;;;;;15.68;11.23;;;;;;;15.12;100.00;101001.66;4988970;28;20438;-86
2023/09/29 00:29:40;;;;;;;17.83;11.50;;;;;;;15.06;100.00;101002.91;4989352;28;20453;-86
2023/09/29 00:32:08;;;;;;;16.13;10.73;;;;;;;15.07;100.00;100997.09;4989399;28;20433;-86
2023/09/29 00:34:37;;;;;;;16.30;11.18;;;;;;;15.12;100.00;101005.25;4989926;28;20425;-86
2023/09/29 00:37:05;;;;;;;17.75;10.77;;;;;;;15.08;100.00;100996.00;4989520;28;20438;-85
2023/09/29 00:39:33;;;;;;;15.75;10.50;;;;;;;15.07;100.00;100996.31;4995783;28;20877;-86
2023/09/29 00:42:06;;;;;;;16.65;10.38;;;;;;;15.04;100.00;100985.94;4991388;28;20438;-87
2023/09/29 00:44:35;;;;;;;17.88;10.77;;;;;;;14.99;100.00;100994.25;4994132;28;20426;-87
2023/09/29 00:47:05;;;;;;;18.75;10.88;;;;;;;14.99;100.00;100997.81;4989525;28;20419;-85
2023/09/29 00:49:34;;;;;;;17.02;10.70;;;;;;;15.02;100.00;101001.88;4989002;28;20434;-85
2023/09/29 00:52:08;;;;;;;15.35;10.88;;;;;;;15.03;100.00;100996.09;4989180;28;20442;-86
2023/09/29 00:54:37;;;;;;;16.38;11.05;;;;;;;14.94;100.00;100982.28;4990373;28;20442;-86
2023/09/29 00:57:07;;;;;;;20.10;11.35;;;;;;;14.95;100.00;100989.38;4988952;28;20449;-86
2023/09/29 00:59:36;;;;;;;19.90;11.43;;;;;;;15.00;100.00;100976.69;4986103;28;20465;-86
2023/09/29 01:02:09;;;;;;;16.60;11.30;;;;;;;15.02;100.00;100972.53;4988361;28;20425;-86
2023/09/29 01:04:38;;;;;;;17.33;11.73;;;;;;;15.07;100.00;100971.63;4990493;28;20426;-86
2023/09/29 01:07:08;;;;;;;19.27;11.00;;;;;;;15.06;100.00;100959.03;4985869;28;20435;-86
2023/09/29 01:09:37;;;;;;;18.90;11.35;;;;;;;15.06;100.00;100959.03;4984909;28;20440;-86
2023/09/29 01:12:25;;;;;;;15.52;11.07;;;;;;;15.07;100.00;100968.91;4987607;28;20423;-87
2023/09/29 01:14:53;;;;;;;17.70;11.15;;;;;;;15.10;100.00;100969.09;4988947;28;21119;-86
2023/09/29 01:17:25;;;;;;;17.75;11.50;;;;;;;15.12;100.00;100960.56;4995163;28;20426;-86
2023/09/29 01:19:54;;;;;;;18.05;11.63;;;;;;;15.21;100.00;100956.00;4988531;28;20909;-86
2023/09/29 01:22:22;;;;;;;19.03;11.83;;;;;;;15.24;100.00;100957.31;4994964;28;20937;-86
2023/09/29 01:24:52;;;;;;;18.77;12.10;;;;;;;15.28;100.00;100959.13;4989714;28;20430;-86
2023/09/29 01:27:20;;;;;;;19.40;12.55;;;;;;;15.34;100.00;100967.28;4988448;28;20858;-86
2023/09/29 01:29:53;;;;;;;19.88;12.10;;;;;;;15.33;100.00;100951.94;4989386;28;20430;-85
2023/09/29 01:32:21;;;;;;;17.02;12.23;;;;;;;15.30;100.00;100951.44;4988226;28;20414;-85
2023/09/29 01:34:50;;;;;;;18.17;12.38;;;;;;;15.32;100.00;100947.59;4987757;28;20430;-86
2023/09/29 01:37:21;;;;;;;17.90;12.80;;;;;;;15.30;100.00;100954.19;4989074;28;20425;-86
2023/09/29 01:39:49;;;;;;;21.90;13.07;;;;;;;15.30;100.00;100945.94;4981921;28;20908;-86
2023/09/29 01:42:24;;;;;;;19.02;13.43;;;;;;;15.33;100.00;100955.50;4994567;28;20434;-87
2023/09/29 01:44:57;;;;;;;19.63;13.35;;;;;;;15.33;100.00;100952.75;4996224;28;20432;-86
2023/09/29 01:47:26;;;;;;;19.33;14.20;;;;;;;15.41;100.00;100960.28;4982168;28;20789;-86
2023/09/29 01:50:00;;;;;;;23.35;14.85;;;;;;;15.47;100.00;100961.78;4988558;28;20421;-87
2023/09/29 01:52:28;;;;;;;18.08;13.73;;;;;;;15.46;100.00;100956.59;4985302;28;20437;-87
2023/09/29 01:55:03;;;;;;;19.05;13.65;;;;;;;15.43;100.00;100955.28;4987051;28;20434;-87
2023/09/29 01:57:33;;;;;;;20.88;13.68;;;;;;;15.38;100.00;100949.88;4988287;28;20446;-88
2023/09/29 02:00:02;;;;;;;21.77;13.38;;;;;;;15.41;100.00;100949.31;4978527;28;20441;-86
2023/09/29 02:02:40;;;;;;;19.95;12.50;;;;;;;15.43;100.00;100947.06;4989256;28;20428;-86
2023/09/29 02:05:10;;;;;;;19.13;12.40;;;;;;;15.44;100.00;100956.09;4993242;28;20792;-86
2023/09/29 02:07:44;;;;;;;21.13;12.60;;;;;;;15.43;100.00;100955.28;4989059;28;20770;-86
2023/09/29 02:10:12;;;;;;;17.00;12.45;;;;;;;15.40;100.00;100949.63;4988102;28;20434;-86
2023/09/29 02:12:51;;;;;;;21.05;12.80;;;;;;;15.36;100.00;100948.59;4985448;28;20434;-87
2023/09/29 02:15:19;;;;;;;19.58;12.55;;;;;;;15.38;100.00;100954.56;4990460;28;20801;-86
2023/09/29 02:17:49;;;;;;;17.17;11.97;;;;;;;15.37;100.00;100948.28;4988105;28;20449;-87
2023/09/29 02:20:18;;;;;;;20.10;12.50;;;;;;;15.41;100.00;100946.56;4980072;28;20428;-86
2023/09/29 02:22:48;;;;;;;17.60;12.30;;;;;;;15.44;100.00;100954.16;4988736;28;20498;-86
2023/09/29 02:25:18;;;;;;;19.58;13.05;;;;;;;15.47;100.00;100956.28;4987284;28;20957;-86
2023/09/29 02:27:54;;;;;;;21.65;13.00;;;;;;;15.50;100.00;100951.31;4987149;28;20422;-86
2023/09/29 02:30:22;;;;;;;20.15;13.48;;;;;;;15.55;100.00;100949.28;4989204;28;20426;-86
2023/09/29 02:32:53;;;;;;;19.52;13.00;;;;;;;15.57;100.00;100955.25;4989197;28;20422;-86
2023/09/29 02:35:21;;;;;;;19.55;13.43;;;;;;;15.55;100.00;100938.31;4988230;28;20418;-86
2023/09/29 02:37:55;;;;;;;19.48;13.02;;;;;;;15.56;100.00;100939.13;4998557;28;20438;-86
2023/09/29 02:40:23;;;;;;;18.23;12.43;;;;;;;15.56;100.00;100922.66;4994207;28;20484;-87
2023/09/29 02:42:58;;;;;;;20.08;11.88;;;;;;;15.59;100.00;100933.00;4987009;28;20430;-86
2023/09/29 02:45:26;;;;;;;17.38;11.32;;;;;;;15.60;100.00;100937.38;4988063;28;20437;-86
2023/09/29 02:47:55;;;;;;;16.88;11.32;;;;;;;15.58;100.00;100932.22;4987364;28;20433;-86
2023/09/29 02:50:28;;;;;;;17.35;10.98;;;;;;;15.64;100.00;100924.66;4986183;28;20453;-87
2023/09/29 02:53:03;;;;;;;17.77;11.50;;;;;;;15.61;100.00;100922.56;4988627;28;21043;-86
2023/09/29 02:55:31;;;;;;;19.80;11.85;;;;;;;15.61;100.00;100934.31;4987381;28;20437;-85
2023/09/29 02:58:06;;;;;;;19.60;11.60;;;;;;;15.61;100.00;100926.09;4997412;28;20449;-88
2023/09/29 03:00:34;;;;;;;17.70;11.07;;;;;;;15.61;100.00;100922.56;4996819;28;20794;-86
2023/09/29 03:03:09;;;;;;;19.13;11.52;;;;;;;15.58;100.00;100917.69;5001367;28;20439;-85
2023/09/29 03:05:43;;;;;;;15.85;10.63;;;;;;;15.61;100.00;100919.81;4987348;28;20419;-86
2023/09/29 03:08:11;;;;;;;17.10;11.15;;;;;;;15.56;100.00;100917.16;4991569;28;20418;-86
2023/09/29 03:10:44;;;;;;;18.08;11.52;;;;;;;15.55;100.00;100921.84;4992280;28;20509;-86
2023/09/29 03:13:19;;;;;;;18.83;11.55;;;;;;;15.59;100.00;100914.63;5003914;28;20442;-86
2023/09/29 03:15:52;;;;;;;18.17;11.57;;;;;;;15.59;100.00;100911.91;4990873;28;20430;-86
2023/09/29 03:18:20;;;;;;;21.13;12.47;;;;;;;15.57;100.00;100907.81;4990377;28;20414;-86
2023/09/29 03:20:53;;;;;;;17.67;12.63;;;;;;;15.59;100.00;100908.31;4990272;28;20433;-86
2023/09/29 03:23:22;;;;;;;20.23;12.40;;;;;;;15.60;100.00;100908.00;4990718;28;20430;-86
2023/09/29 03:25:55;;;;;;;16.50;11.52;;;;;;;15.60;100.00;100904.47;4990068;28;20426;-87
2023/09/29 03:28:30;;;;;;;20.45;12.82;;;;;;;15.58;100.00;100912.19;4990343;28;20426;-86
2023/09/29 03:31:00;;;;;;;18.27;11.88;;;;;;;15.60;100.00;100902.53;4990460;28;20438;-87
2023/09/29 03:33:29;;;;;;;18.83;11.50;;;;;;;15.64;100.00;100905.47;4993177;28;20406;-89
2023/09/29 03:35:57;;;;;;;19.23;11.95;;;;;;;15.65;100.00;100910.66;4991843;28;20422;-88
2023/09/29 03:38:26;;;;;;;17.80;11.27;;;;;;;15.68;100.00;100908.41;4987801;28;20430;-85
2023/09/29 03:41:00;;;;;;;17.70;11.75;;;;;;;15.66;100.00;100897.75;4989232;28;20445;-87
2023/09/29 03:43:34;;;;;;;18.77;11.13;;;;;;;15.66;100.00;100900.50;4987151;28;20490;-87
2023/09/29 03:46:04;;;;;;;18.13;11.35;;;;;;;15.68;100.00;100897.44;4988488;28;20430;-87
2023/09/29 03:48:32;;;;;;;19.38;10.75;;;;;;;15.65;100.00;100901.63;4989277;28;20430;-87
2023/09/29 03:51:06;;;;;;;19.73;10.53;;;;;;;15.58;100.00;100896.53;4990032;28;20454;-87
2023/09/29 03:53:39;;;;;;;19.67;10.07;;;;;;;15.55;100.00;100902.66;4991643;28;20430;-87
2023/09/29 03:56:07;;;;;;;15.00;9.90;;;;;;;15.50;100.00;100896.47;4990973;28;20437;-86
2023/09/29 03:58:42;;;;;;;17.33;9.93;;;;;;;15.48;100.00;100886.63;4991536;28;20430;-87
2023/09/29 04:01:10;;;;;;;16.73;10.07;;;;;;;15.49;100.00;100884.66;4990330;28;20423;-87
2023/09/29 04:03:44;;;;;;;17.55;10.60;;;;;;;15.48;100.00;100894.84;4984653;28;20449;-87
2023/09/29 04:06:12;;;;;;;14.20;9.40;;;;;;;15.45;100.00;100891.91;4988850;28;20422;-87
2023/09/29 04:08:41;;;;;;;17.08;9.50;;;;;;;15.39;100.00;100893.94;5005556;28;20433;-89
2023/09/29 04:11:10;;;;;;;17.00;9.53;;;;;;;15.43;100.00;100892.19;4989017;28;20434;-87
2023/09/29 04:13:39;;;;;;;18.00;9.70;;;;;;;15.45;100.00;100883.66;4989257;28;20426;-87
2023/09/29 04:16:14;;;;;;;20.15;9.43;;;;;;;15.39;100.00;100895.88;4990974;28;20437;-87
2023/09/29 04:18:42;;;;;;;17.57;9.33;;;;;;;15.37;100.00;100896.19;4990467;28;20434;-86
2023/09/29 04:21:15;;;;;;;18.38;9.68;;;;;;;15.42;100.00;100885.09;4991414;28;20415;-86
2023/09/29 04:23:48;;;;;;;18.30;8.82;;;;;;;15.38;100.00;100875.84;4987830;28;20431;-88
2023/09/29 04:26:18;;;;;;;17.30;9.38;;;;;;;15.41;100.00;100880.75;4984467;28;20903;-89
2023/09/29 04:28:47;;;;;;;16.40;9.27;;;;;;;15.43;100.00;100877.69;4988231;28;20430;-86
2023/09/29 04:31:21;;;;;;;19.93;9.73;;;;;;;15.42;100.00;100882.34;4983796;28;20917;-84
2023/09/29 04:33:54;;;;;;;17.25;8.88;;;;;;;15.47;100.00;100873.22;4991956;28;20431;-88
2023/09/29 04:36:28;;;;;;;15.60;8.60;;;;;;;15.44;100.00;100868.34;4990251;28;20437;-87
2023/09/29 04:39:01;;;;;;;14.32;9.43;;;;;;;15.40;100.00;100865.41;4991362;28;20931;-86
2023/09/29 04:41:29;;;;;;;16.70;8.88;;;;;;;15.39;100.00;100863.78;4978850;28;20923;-87
2023/09/29 04:43:59;;;;;;;14.77;8.40;;;;;;;15.37;100.00;100874.25;4988750;28;21268;-87
2023/09/29 04:46:29;;;;;;;16.83;9.00;;;;;;;15.38;100.00;100867.63;4986817;28;20416;-87
2023/09/29 04:48:58;;;;;;;15.75;8.68;;;;;;;15.37;100.00;100874.25;4990130;28;20434;-85
2023/09/29 04:51:31;;;;;;;16.42;9.05;;;;;;;15.28;100.00;100862.38;4990896;28;20435;-86
2023/09/29 04:54:00;;;;;;;16.50;9.20;;;;;;;15.29;100.00;100874.97;4989798;28;20455;-87
2023/09/29 04:56:29;;;;;;;15.10;9.25;;;;;;;15.28;100.00;100867.84;4989591;28;20430;-87
2023/09/29 04:58:57;;;;;;;15.00;9.35;;;;;;;15.29;100.00;100862.06;4988015;28;20430;-86
2023/09/29 05:01:26;;;;;;;16.70;9.77;;;;;;;15.25;100.00;100866.53;4990781;28;20423;-88
2023/09/29 05:04:01;;;;;;;18.48;9.73;;;;;;;15.20;100.00;100866.63;4988702;28;20434;-87
2023/09/29 05:06:29;;;;;;;16.73;9.32;;;;;;;15.18;100.00;100868.06;4989940;28;20463;-87
2023/09/29 05:08:57;;;;;;;15.38;9.48;;;;;;;15.18;100.00;100866.16;4988850;28;20438;-87
2023/09/29 05:11:31;;;;;;;17.77;9.80;;;;;;;15.20;100.00;100868.56;4990436;28;20426;-87
2023/09/29 05:14:06;;;;;;;20.38;9.63;;;;;;;15.11;100.00;100865.75;4993886;28;20881;-85
2023/09/29 05:16:39;;;;;;;15.27;9.57;;;;;;;15.10;100.00;100866.88;4989411;28;20430;-87
2023/09/29 05:19:09;;;;;;;15.27;9.68;;;;;;;15.14;100.00;100873.34;4989809;28;20441;-88
2023/09/29 05:21:38;;;;;;;16.60;9.30;;;;;;;15.08;100.00;100863.59;4989923;28;20419;-87
2023/09/29 05:24:07;;;;;;;18.20;9.75;;;;;;;15.08;100.00;100869.09;4990819;28;20426;-85
2023/09/29 05:26:35;;;;;;;14.95;9.32;;;;;;;15.13;100.00;100864.34;5004847;28;20441;-86
2023/09/29 05:29:04;;;;;;;17.85;9.65;;;;;;;15.14;100.00;100859.66;4989348;28;20418;-87
2023/09/29 05:31:32;;;;;;;20.00;9.80;;;;;;;15.21;100.00;100862.78;4991449;28;20430;-88
2023/09/29 05:34:01;;;;;;;17.30;8.90;;;;;;;15.15;100.00;100861.28;4983410;28;20438;-87
2023/09/29 05:36:35;;;;;;;19.00;10.00;;;;;;;15.10;100.00;100864.13;4986385;28;20430;-86
2023/09/29 05:39:04;;;;;;;14.90;9.65;;;;;;;15.10;100.00;100859.44;4990212;28;20418;-87
2023/09/29 05:41:31;;;;;;;15.40;9.45;;;;;;;15.15;100.00;100880.47;4989000;28;20889;-87
2023/09/29 05:44:00;;;;;;;15.95;9.60;;;;;;;15.14;100.00;100871.41;4992129;28;20748;-88
2023/09/29 05:46:33;;;;;;;15.70;9.40;;;;;;;15.11;100.00;100868.50;5001961;28;20790;-86
2023/09/29 05:49:09;;;;;;;14.68;9.30;;;;;;;15.05;100.00;100865.06;4986409;28;20438;-87
2023/09/29 05:51:39;;;;;;;16.92;9.88;;;;;;;15.05;100.00;100859.56;5003807;28;20434;-86
2023/09/29 05:54:07;;;;;;;17.50;9.60;;;;;;;15.07;100.00;100851.84;4989461;28;20473;-87
2023/09/29 05:56:35;;;;;;;14.55;9.15;;;;;;;15.11;100.00;100852.06;4990804;28;20413;-88
2023/09/29 05:59:09;;;;;;;16.23;9.13;;;;;;;15.12;100.00;100854.47;4985984;28;20426;-88
2023/09/29 06:01:37;;;;;;;12.73;8.70;;;;;;;15.11;100.00;100861.06;4987059;28;20438;-86
2023/09/29 06:04:05;;;;;;;16.00;9.35;;;;;;;15.12;100.00;100859.13;4987755;28;20434;-88
2023/09/29 06:06:40;;;;;;;15.48;9.50;;;;;;;15.08;100.00;100867.19;4988532;28;20432;-87
2023/09/29 06:09:08;;;;;;;14.85;9.15;;;;;;;15.14;100.00;100865.94;4978149;23;20766;-82
2023/09/29 06:11:36;;;;;;;19.33;9.85;;;;;;;15.15;100.00;100866.78;4953037;28;20438;-81
2023/09/29 06:14:10;;;;;;;15.23;9.43;;;;;;;15.14;100.00;100871.41;4954341;28;20421;-82
2023/09/29 06:16:43;;;;;;;19.15;10.38;;;;;;;15.12;100.00;100870.09;4964202;28;20424;-82
2023/09/29 06:19:17;;;;;;;15.00;10.20;;;;;;;15.12;100.00;100861.88;4971752;28;20424;-81
2023/09/29 06:21:51;;;;;;;15.97;9.57;;;;;;;15.10;100.00;100844.94;4957794;28;20421;-82
2023/09/29 06:24:19;;;;;;;15.60;9.65;;;;;;;15.15;100.00;100831.13;4955165;28;20461;-82
2023/09/29 06:26:47;;;;;;;19.05;10.50;;;;;;;15.22;100.00;100836.16;4962789;28;20430;-81
2023/09/29 06:29:20;;;;;;;17.60;10.00;;;;;;;15.18;100.00;100844.22;4959748;28;20428;-81
2023/09/29 06:31:49;;;;;;;16.80;10.43;;;;;;;15.17;100.00;100844.53;4960578;28;20846;-82
2023/09/29 06:34:22;;;;;;;16.83;10.60;;;;;;;15.13;100.00;100844.31;4955182;28;20460;-82
2023/09/29 06:36:51;;;;;;;18.02;10.80;;;;;;;15.14;100.00;100843.22;4958359;28;20960;-82
2023/09/29 06:39:24;;;;;;;19.67;10.73;;;;;;;15.12;100.00;100839.94;4960670;28;20433;-82
2023/09/29 06:41:53;;;;;;;15.23;10.57;;;;;;;15.07;100.00;100854.59;4962351;28;20432;-81
2023/09/29 06:44:26;;;;;;;19.63;11.20;;;;;;;15.12;100.00;100849.00;4959388;28;20459;-81
2023/09/29 06:46:54;;;;;;;17.85;11.85;;;;;;;15.10;100.00;100850.41;4966535;28;20431;-83
2023/09/29 06:49:27;;;;;;;18.05;11.75;;;;;;;15.08;100.00;100844.41;4960483;28;20436;-81
2023/09/29 06:52:02;;;;;;;18.43;11.30;;;;;;;15.07;100.00;100848.31;4957935;28;20447;-82
2023/09/29 06:54:35;;;;;;;17.30;11.80;;;;;;;15.15;100.00;100847.56;4958001;28;20444;-82
2023/09/29 06:57:08;;;;;;;21.17;12.23;;;;;;;15.14;100.00;100838.53;4971526;28;20443;-87
2023/09/29 06:59:41;;;;;;;19.48;12.10;;;;;;;15.16;100.00;100840.94;4966824;28;20927;-87
2023/09/29 07:02:15;;;;;;;21.08;12.77;;;;;;;15.16;100.00;100846.44;4960862;28;20437;-87
2023/09/29 07:04:48;;;;;;;19.27;12.20;;;;;;;15.21;100.00;100851.03;4954284;28;20442;-86
2023/09/29 07:07:22;;;;;;;17.45;12.10;;;;;;;15.22;100.00;100853.44;4950965;28;20433;-83
2023/09/29 07:09:56;;;;;;;20.00;12.15;;;;;;;15.25;100.00;100858.31;4950829;28;20440;-83
2023/09/29 07:12:29;;;;;;;18.38;12.60;;;;;;;15.27;100.00;100856.09;4951719;28;20448;-84
2023/09/29 07:14:57;;;;;;;20.13;13.05;;;;;;;15.32;100.00;100857.91;4948655;28;20449;-84
2023/09/29 07:17:25;;;;;;;19.27;12.88;;;;;;;15.32;100.00;100846.94;4947441;28;20433;-83
2023/09/29 07:19:54;;;;;;;18.35;13.15;;;;;;;15.32;100.00;100855.16;4913908;28;20445;-84
2023/09/29 07:22:23;;;;;;;19.05;12.85;;;;;;;15.33;100.00;100858.69;4940179;28;20794;-85
2023/09/29 07:24:57;;;;;;;22.00;13.55;;;;;;;15.31;100.00;100864.50;4937419;28;20450;-84
2023/09/29 07:27:31;;;;;;;18.85;13.13;;;;;;;15.32;100.00;100862.59;4941057;28;20432;-83
2023/09/29 07:30:00;;;;;;;22.58;13.10;;;;;;;15.32;100.00;100857.91;4949078;28;20484;-89
2023/09/29 07:32:33;;;;;;;19.05;13.70;;;;;;;15.35;100.00;100853.72;4942628;28;20970;-83
2023/09/29 07:35:01;;;;;;;19.90;13.23;;;;;;;15.41;100.00;100850.56;4936533;28;20436;-83
2023/09/29 07:37:31;;;;;;;21.40;13.15;;;;;;;15.37;100.00;100859.72;4935581;28;20437;-84
2023/09/29 07:40:05;;;;;;;22.57;12.97;;;;;;;15.35;100.00;100854.53;4938313;28;20436;-83
2023/09/29 07:42:33;;;;;;;20.77;13.95;;;;;;;15.39;100.00;100847.31;4934940;28;20441;-84
2023/09/29 07:45:08;;;;;;;19.65;13.95;;;;;;;15.43;100.00;100853.81;4938671;28;20444;-85
2023/09/29 07:47:41;;;;;;;20.95;13.65;;;;;;;15.47;100.00;100849.31;4940557;28;20445;-84
2023/09/29 07:50:17;;;;;;;20.45;13.73;;;;;;;15.50;100.00;100852.59;4938483;28;20451;-83
2023/09/29 07:52:50;;;;;;;19.38;13.80;;;;;;;15.55;100.00;100850.53;4940713;28;20549;-82
2023/09/29 07:55:19;;;;;;;24.33;14.00;;;;;;;15.62;100.00;100861.09;4942455;28;20462;-83
2023/09/29 07:57:54;;;;;;;21.87;13.43;;;;;;;15.72;100.00;100855.34;4937158;28;20501;-83
2023/09/29 08:00:26;;;;;;;22.52;14.25;;;;;;;15.78;100.00;100851.38;4941761;28;20432;-88
2023/09/29 08:03:32;;;;;;;22.33;14.18;;;;;;;15.70;100.00;100859.53;4942291;28;20436;-83
2023/09/29 08:06:01;;;;;;;21.73;14.40;;;;;;;15.80;100.00;100873.06;4944612;28;20452;-83
2023/09/29 08:08:35;;;;;;;21.40;14.38;;;;;;;15.84;100.00;100862.25;4940296;28;21333;-84
2023/09/29 08:11:04;;;;;;;20.55;14.27;;;;;;;15.96;100.00;100865.25;4940734;28;21872;-83
2023/09/29 08:13:35;;;;;;;21.92;14.40;;;;;;;15.94;100.00;100867.50;4945722;28;20434;-85
2023/09/29 08:16:04;;;;;;;22.30;14.55;;;;;;;15.95;100.00;100863.63;4937979;28;20480;-83
2023/09/29 08:18:32;;;;;;;19.85;14.55;;;;;;;15.97;100.00;100864.94;4933324;28;21028;-83
2023/09/29 08:21:05;;;;;;;22.20;15.18;;;;;;;15.90;100.00;100869.25;4938118;28;21927;-86
2023/09/29 08:23:40;;;;;;;21.30;14.73;;;;;;;15.98;100.00;100863.00;4940613;28;22127;-83
2023/09/29 08:26:08;;;;;;;21.90;14.75;;;;;;;15.98;100.00;100872.06;4939854;28;20426;-84
2023/09/29 08:28:41;;;;;;;21.48;14.57;;;;;;;15.97;100.00;100877.84;4944461;28;20441;-84
2023/09/29 08:31:15;;;;;;;22.08;15.15;;;;;;;16.02;100.00;100885.97;4946170;28;20443;-84
2023/09/29 08:33:48;;;;;;;21.88;14.38;;;;;;;16.09;100.00;100875.34;4941198;28;20439;-84
2023/09/29 08:36:21;;;;;;;22.08;14.32;;;;;;;16.13;100.00;100878.31;4945390;28;21263;-85
2023/09/29 08:38:51;;;;;;;18.25;14.30;;;;;;;16.31;100.00;100879.22;4938679;28;20456;-84
2023/09/29 08:41:27;;;;;;;21.05;14.70;;;;;;;16.27;100.00;100881.78;4938560;28;20436;-84
2023/09/29 08:43:56;;;;;;;22.33;14.15;;;;;;;16.28;100.00;100861.44;4941551;28;20432;-85
2023/09/29 08:46:30;;;;;;;19.95;14.40;;;;;;;16.24;100.00;100860.44;4942171;28;20856;-85
2023/09/29 08:48:58;;;;;;;21.70;14.23;;;;;;;16.36;100.00;100872.78;4940436;28;20450;-84
2023/09/29 08:51:32;;;;;;;19.53;13.97;;;;;;;16.37;100.00;100875.22;4940558;28;20439;-84
2023/09/29 08:54:09;;;;;;;22.10;14.30;;;;;;;16.34;100.00;100878.59;4950167;28;20440;-85
2023/09/29 08:56:42;;;;;;;23.42;14.80;;;;;;;16.37;100.00;100874.41;4943461;28;20869;-84
2023/09/29 08:59:10;;;;;;;19.88;14.35;;;;;;;16.37;100.00;100864.22;4947609;28;20914;-84
2023/09/29 09:01:40;;;;;;;23.15;14.30;;;;;;;16.46;100.00;100845.03;4939828;28;20420;-84
2023/09/29 09:04:13;;;;;;;22.25;13.77;;;;;;;16.53;100.00;100847.31;4940573;28;20438;-85
2023/09/29 09:06:41;;;;;;;18.63;13.02;;;;;;;16.58;100.00;100856.25;4942174;28;20457;-84
2023/09/29 09:09:22;;;;;;;19.52;12.95;;;;;;;16.71;100.00;100862.78;4945912;28;20433;-85
2023/09/29 09:11:51;;;;;;;17.38;12.90;;;;;;;16.84;100.00;100867.34;4939813;28;20448;-86
2023/09/29 09:14:26;;;;;;;19.77;13.00;;;;;;;16.93;100.00;100858.34;4938106;28;20438;-85
2023/09/29 09:17:02;;;;;;;21.60;12.43;;;;;;;17.03;100.00;100849.00;4938619;28;20436;-84
2023/09/29 09:19:30;;;;;;;17.83;11.93;;;;;;;17.03;100.00;100851.75;4923070;28;20423;-85
2023/09/29 09:21:58;;;;;;;19.53;11.67;;;;;;;17.10;100.00;100852.91;4940709;28;20445;-86
2023/09/29 09:24:33;;;;;;;20.05;12.15;;;;;;;17.14;100.00;100845.63;4942058;28;20433;-85
2023/09/29 09:27:06;;;;;;;18.52;12.10;;;;;;;17.26;100.00;100845.03;4941851;28;21054;-84
2023/09/29 09:29:42;;;;;;;17.17;11.60;;;;;;;17.45;100.00;100850.19;4939305;28;20421;-86
2023/09/29 09:32:11;;;;;;;16.33;11.05;;;;;;;17.67;100.00;100843.72;4942283;28;22016;-86
2023/09/29 09:34:44;;;;;;;18.00;10.95;;;;;;;17.95;100.00;100845.38;4945231;28;20441;-84
2023/09/29 09:37:13;;;;;;;16.38;10.35;;;;;;;17.89;100.00;100835.66;4938677;28;20443;-85
2023/09/29 09:39:47;;;;;;;19.40;9.77;;;;;;;17.84;100.00;100842.94;4936809;28;20440;-85
2023/09/29 09:42:24;;;;;;;14.98;9.43;;;;;;;17.94;100.00;100852.00;4937134;28;20436;-86
2023/09/29 09:44:56;;;;;;;14.88;8.65;;;;;;;17.99;100.00;100857.34;4942814;28;21022;-85
2023/09/29 09:47:26;;;;;;;13.90;8.43;;;;;;;18.06;100.00;100871.44;4941169;28;21219;-86
2023/09/29 09:50:02;;;;;;;14.48;8.10;;;;;;;18.11;100.00;100879.53;4940412;28;20808;-86
2023/09/29 09:52:31;;;;;;;14.68;8.43;;;;;;;18.24;100.00;100874.97;4939217;28;20453;-84
2023/09/29 09:55:11;;;;;;;13.38;7.80;;;;;;;18.35;100.00;100878.19;4940207;28;20917;-83
2023/09/29 09:57:47;;;;;;;12.27;7.38;;;;;;;18.30;100.00;100881.94;4940107;28;20432;-84
2023/09/29 10:00:24;;;;;;;13.68;7.03;;;;;;;18.41;100.00;100865.88;4936485;28;21140;-87
2023/09/29 10:02:56;;;;;;;12.90;7.10;;;;;;;18.41;100.00;100854.03;4938949;28;20440;-87
2023/09/29 10:05:30;;;;;;;10.30;6.28;;;;;;;18.47;100.00;100852.72;4941182;28;20435;-85
2023/09/29 10:08:04;;;;;;;10.63;6.10;;;;;;;18.49;100.00;100855.94;4941444;28;21004;-82
2023/09/29 10:10:35;;;;;;;13.30;6.93;;;;;;;18.50;100.00;100868.59;4941217;28;20447;-86
2023/09/29 10:13:11;;;;;;;10.35;6.03;;;;;;;18.77;100.00;100861.03;4944772;28;21169;-87
2023/09/29 10:15:56;;;;;;;10.90;5.78;;;;;;;18.77;100.00;100863.81;4948304;28;20438;-85
2023/09/29 10:18:24;;;;;;;11.80;6.10;;;;;;;18.74;100.00;100869.97;4946555;28;20435;-86
2023/09/29 10:21:06;;;;;;;10.10;6.20;;;;;;;18.66;100.00;100868.88;4910871;28;20456;-82
2023/09/29 10:23:44;;;;;;;11.93;5.68;;;;;;;18.65;100.00;100865.28;4936672;28;20443;-84
2023/09/29 10:26:15;;;;;;;11.77;5.97;;;;;;;18.57;100.00;100841.31;4935418;28;20437;-90
2023/09/29 10:28:45;;;;;;;11.75;5.90;;;;;;;18.60;100.00;100861.91;4941678;28;20927;-87
2023/09/29 10:31:17;;;;;;;11.73;5.47;;;;;;;18.61;100.00;100847.00;4942744;28;21105;-86
2023/09/29 10:33:53;;;;;;;10.20;5.30;;;;;;;18.57;100.00;100843.28;4935487;28;20506;-84
2023/09/29 10:36:23;;;;;;;11.07;5.93;;;;;;;18.47;100.00;100834.22;4935004;28;20439;-83
2023/09/29 10:38:53;;;;;;;10.25;5.20;;;;;;;18.48;100.00;100813.81;4935754;28;20444;-86
2023/09/29 10:41:31;;;;;;;11.40;5.10;;;;;;;18.43;100.00;100821.44;4939678;28;20966;-84
2023/09/29 10:44:06;;;;;;;10.73;5.13;;;;;;;18.38;100.00;100836.22;4942528;28;20793;-83
2023/09/29 10:46:50;;;;;;;8.85;5.55;;;;;;;18.40;100.00;100828.44;4944171;28;20424;-86
2023/09/29 10:49:18;;;;;;;14.70;4.80;;;;;;;18.52;100.00;100831.31;4939325;28;20439;-86
2023/09/29 10:51:51;;;;;;;12.52;5.07;;;;;;;18.42;100.00;100837.19;4938721;28;20447;-86
2023/09/29 10:54:25;;;;;;;10.03;5.07;;;;;;;18.43;100.00;100830.50;4940601;28;20446;-84
2023/09/29 10:56:59;;;;;;;11.52;5.05;;;;;;;18.51;100.00;100828.88;4935201;28;20441;-86
2023/09/29 10:59:33;;;;;;;10.88;5.07;;;;;;;18.53;100.00;100829.34;4940004;28;20473;-87
2023/09/29 11:02:06;;;;;;;9.35;4.97;;;;;;;18.60;100.00;100823.31;4937274;28;20440;-86
2023/09/29 11:04:34;;;;;;;8.65;5.13;;;;;;;18.56;100.00;100812.16;4936518;28;20447;-84
2023/09/29 11:07:03;;;;;;;8.10;4.80;;;;;;;18.59;100.00;100807.91;4936044;28;20440;-86
2023/09/29 11:09:32;;;;;;;8.33;4.73;;;;;;;18.55;100.00;100802.28;4936636;28;20422;-86
2023/09/29 11:12:07;;;;;;;12.02;4.97;;;;;;;18.72;100.00;100801.38;4942751;28;20435;-85
2023/09/29 11:14:36;;;;;;;10.20;4.63;;;;;;;18.74;100.00;100820.34;4941542;28;21079;-84
2023/09/29 11:17:05;;;;;;;9.85;4.70;;;;;;;18.77;100.00;100811.41;4942363;28;20529;-86
2023/09/29 11:19:38;;;;;;;10.50;4.50;;;;;;;18.77;100.00;100814.19;4912685;28;20420;-87
2023/09/29 11:22:17;;;;;;;8.93;4.43;;;;;;;18.69;100.00;100805.59;4949533;28;20456;-84
2023/09/29 11:24:50;;;;;;;12.90;5.05;;;;;;;18.72;100.00;100795.06;4945242;28;20433;-86